臺北終端管制區 - 桃園南區雷達席

METAR RCTP 270800Z 06017KT 9999 FEW020 28/18 Q1012 NOSIG RMK A2989=

站台狀態:Online
最後更新:2020-10-27 16:30:01